Relevés horaires Florennes (Belgique)


Relevés horaires à Florennes - Mercredi 31 Mars 2021
Heure UTC1 Température [°C] Vent [km/h] Hum. [%] Pres.4 [hPa] Visi. [Km] Nébu. [octa] Préc.5 [mm] Cond.
2m. Res. Ros. Dir.2 Vit. Moy. Raf.3
23:00 15.4 15.4 4.4 NNO 1.9 -- 1.9 48 1020.6(0.1/3h) 17 -- -- --
22:00 16.3 16.3 3.7 NNO 1.9 -- 1.9 43 1020.2(0.0/3h) 19 -- -- --
21:00 16.0 16.0 3.1 NNO 1.9 -- 5.6 42 1020.2(0.1/3h) 20 -- -- --
20:00 16.8 16.8 3.2 NNO 1.9 -- 3.7 40 1020.2(0.4/3h) 20 -- -- --
19:00 18.2 18.2 2.9 NNO 1.9 -- 5.6 36 1020(0.3/3h) 20 -- -- --
18:00 20.1 20.1 2.7 SO 3.7 -- 11.1 32 1019.6(-0.1/3h) 20 -- -- --
17:00 21.7 21.7 2.6 OSO 3.7 -- 5.6 28 1019.2(-0.6/3h) 20 -- -- --
16:00 22.0 22.0 7.0 O 3.7 -- 11.1 38 1019.2(-1.1/3h) 20 -- -- --
15:00 22.6 22.6 5.7 O 3.7 -- 11.1 33 1019.3(-1.3/3h) 20 0/8 -- --
14:00 23.1 23.1 4.9 O 3.7 -- 11.1 31 1019.7(-1.7/3h) 20 0/8 -- --
13:00 22.9 22.9 5.1 SO 3.7 -- 9.3 31 1020.2(-1.4/3h) 20 0/8 -- --
12:00 21.9 21.9 3.0 NNO 1.9 -- 7.4 29 1021(-1.2/3h) 20 0/8 -- --
11:00 20.7 20.7 6.0 NNO 1.9 -- 5.6 38 1021.7(-0.6/3h) 20 0/8 -- --
10:00 19.1 19.1 5.5 SSO 3.7 -- 7.4 41 1022.2(-0.3/3h) 20 0/8 -- --
09:00 18.5 18.5 5.4 SO 3.7 -- 5.6 42 1022.6(0.0/3h) 20 0/8 -- --
08:00 14.9 14.9 5.0 NNO 1.9 -- 3.7 51 1023.1(-0.2/3h) 20 1/8 -- --
07:00 12.1 12.1 2.6 NNO 1.9 -- 3.7 52 1023.5(-0.2/3h) 20 1/8 -- --
06:00 9.3 9.3 1.2 E 3.7 -- 5.6 57 1023.7(-0.6/3h) 20 1/8 -- --
05:00 8.0 8.0 0.8 NNO 1.9 -- 3.7 60 1024.2(-1.0/3h) 20 -- -- --
04:00 12.6 12.6 0.3 ESE 3.7 -- 5.6 43 1023.7(-1.3/3h) 20 -- -- --
03:00 8.4 7.7 1.5 E 5.6 -- 5.6 62 1024.5(-1.5/3h) 20 -- -- --
02:00 8.9 8.9 1.2 E 3.7 -- 3.7 58 1025(-1.2/3h) 20 -- -- --
01:00 13.0 13.0 -0.4 NNO 1.9 -- 3.7 40 1025(-1.1/3h) 20 -- -- --
00:00 12.9 12.9 -0.3 NNO 1.9 -- 3.7 40 1025.5(-1.0/3h) 20 -- -- --

1 Coordinated Universal Time. Actuellement il est 12:00 locale et 10:00 UTC.

2 Le vent souffle depuis la direction indiquée vers la direction oposée.

3 Les rafales max. sont disponible 40 min après l'heure du relevé.

4 Pour les stations d'altitude (plus de 600m) le géopotentiel du niveau le plus proche de la pression obligatoire est indiqué.

5 Les stations disposant d'un diffuseur peuvent indiquer "trace". Cela signifie que des précipitations ont touchés le sol mais que la quantité est inférieure à 0.1 mm.

Récapitulatif de la journée
Température [°C] Vent [km/h] Ensoleillement4 [h] Precipitations totale5 [mm] Pression [Hpa]
Min1 Max.2 Moy.3 Max. Min Max.
7.6 23.3 0 11.1 0 h 0 min 0 1019.2 1025.5

1 Température minimale relevée entre 18:00 UTC la veille et 18:00 UTC le jour donné.

2 Température maximale relevée entre 06:00 UTC le jour donné et 06:00 UTC le lendemain.

3 Vent moyen de la journée basé sur les relevés horaires.

4 Ensoleillement en heures relevé entre 06:00 UTC la veille et 06:00 UTC le jour donné.

5 Précipitations totales tombées entre 06:00 UTC la jour donné et 06:00 UTC le lendemain.

Graphiques horaires